createdAt,value
2022-08-19T00:03:00.476Z,1.40
2022-08-19T00:07:04.404Z,1.60
2022-08-19T00:11:09.573Z,1.75
2022-08-19T00:15:23.535Z,1.83
2022-08-19T00:19:27.114Z,1.92
2022-08-19T00:23:30.464Z,2.10
2022-08-19T00:27:35.717Z,1.90
2022-08-19T00:31:38.944Z,1.60
2022-08-19T00:35:42.178Z,1.83
2022-08-19T00:39:45.829Z,2.00
2022-08-19T00:44:06.333Z,1.92
2022-08-19T00:48:14.874Z,1.83
2022-08-19T00:52:23.136Z,1.90
2022-08-19T00:56:27.470Z,2.00
2022-08-19T01:00:37.578Z,1.98
2022-08-19T01:04:40.925Z,1.90
2022-08-19T01:08:44.088Z,1.70
2022-08-19T01:12:48.355Z,2.28
2022-08-19T01:16:55.517Z,2.33
2022-08-19T01:21:01.740Z,2.35
2022-08-19T01:25:09.975Z,2.30
2022-08-19T01:29:18.419Z,2.10
2022-08-19T01:33:23.631Z,2.33
2022-08-19T01:37:27.231Z,1.75
2022-08-19T01:41:31.878Z,2.17
2022-08-19T01:45:38.618Z,1.80
2022-08-19T01:49:41.793Z,2.25
2022-08-19T01:53:44.972Z,1.88
2022-08-19T01:57:52.689Z,2.20
2022-08-19T02:01:56.253Z,1.70
2022-08-19T02:06:01.286Z,2.08
2022-08-19T02:10:09.418Z,2.25
2022-08-19T02:14:17.313Z,1.75
2022-08-19T02:18:20.596Z,1.95
2022-08-19T02:22:31.092Z,2.25
2022-08-19T02:26:34.673Z,1.52
2022-08-19T02:30:39.435Z,1.67
2022-08-19T02:34:42.722Z,1.70
2022-08-19T02:38:47.680Z,2.10
2022-08-19T02:42:58.960Z,1.75
2022-08-19T02:47:04.088Z,1.70
2022-08-19T02:51:07.402Z,1.48
2022-08-19T02:55:11.419Z,1.77
2022-08-19T02:59:14.829Z,2.00
2022-08-19T03:03:19.907Z,1.73
2022-08-19T03:07:23.515Z,1.83
2022-08-19T03:11:29.299Z,1.90
2022-08-19T03:15:32.732Z,2.00
2022-08-19T03:19:37.424Z,2.05
2022-08-19T03:23:41.520Z,1.85
2022-08-19T03:27:45.115Z,1.90
2022-08-19T03:31:52.482Z,2.00
2022-08-19T03:36:06.481Z,2.15
2022-08-19T03:40:10.527Z,2.28
2022-08-19T03:44:21.897Z,2.05
2022-08-19T03:48:25.428Z,2.25
2022-08-19T03:52:29.862Z,2.08
2022-08-19T03:56:33.061Z,2.08
2022-08-19T04:00:36.873Z,2.22
2022-08-19T04:04:41.689Z,2.15
2022-08-19T04:08:48.027Z,2.22
2022-08-19T04:12:51.540Z,1.90
2022-08-19T04:16:55.457Z,2.75
2022-08-19T04:20:58.823Z,2.60
2022-08-19T04:25:03.389Z,2.13
2022-08-19T04:29:12.733Z,2.40
2022-08-19T04:33:17.907Z,2.50
2022-08-19T04:37:29.528Z,2.15
2022-08-19T04:41:57.658Z,2.33
2022-08-19T04:46:06.175Z,3.03
2022-08-19T04:50:12.811Z,2.95
2022-08-19T04:54:33.743Z,3.28
2022-08-19T04:58:43.402Z,2.80
2022-08-19T05:02:46.877Z,2.97
2022-08-19T05:06:50.748Z,2.78
2022-08-19T05:10:54.026Z,3.47
2022-08-19T05:14:59.016Z,3.10
2022-08-19T05:19:19.803Z,3.58
2022-08-19T05:23:23.118Z,3.28
2022-08-19T05:27:26.560Z,3.78
2022-08-19T05:31:31.230Z,3.80
2022-08-19T05:35:34.746Z,3.38
2022-08-19T05:39:39.758Z,3.35
2022-08-19T05:43:43.211Z,3.33
2022-08-19T05:47:48.051Z,3.72
2022-08-19T05:51:52.155Z,3.67
2022-08-19T05:55:55.298Z,4.13
2022-08-19T06:00:01.416Z,4.43
2022-08-19T06:04:16.264Z,5.05
2022-08-19T06:08:19.700Z,4.35
2022-08-19T06:12:31.670Z,4.30
2022-08-19T06:16:36.080Z,4.03
2022-08-19T06:20:55.515Z,3.88
2022-08-19T06:24:59.176Z,3.72
2022-08-19T06:29:02.809Z,3.58
2022-08-19T06:33:06.128Z,3.90
2022-08-19T06:37:10.953Z,3.78
2022-08-19T06:41:14.007Z,3.88
2022-08-19T06:45:17.145Z,3.75
2022-08-19T06:49:20.806Z,3.80
2022-08-19T06:53:25.724Z,4.18
2022-08-19T06:57:33.635Z,4.05
2022-08-19T07:01:38.549Z,3.70
2022-08-19T07:05:45.659Z,3.65
2022-08-19T07:10:00.888Z,3.88
2022-08-19T07:14:07.546Z,3.63
2022-08-19T07:18:23.972Z,3.78
2022-08-19T07:22:30.240Z,3.47
2022-08-19T07:26:40.855Z,3.20
2022-08-19T07:30:45.562Z,3.10
2022-08-19T07:34:48.692Z,3.22
2022-08-19T07:38:55.292Z,3.15
2022-08-19T07:43:00.130Z,3.00
2022-08-19T07:47:04.199Z,3.10
2022-08-19T07:51:09.665Z,2.80
2022-08-19T07:55:42.651Z,2.90
2022-08-19T07:59:37.693Z,2.63
2022-08-19T08:03:58.420Z,3.28
2022-08-19T08:08:18.976Z,3.30
2022-08-19T08:12:35.146Z,2.83
2022-08-19T08:16:47.067Z,3.13
2022-08-19T08:20:50.575Z,3.10
2022-08-19T08:24:53.970Z,2.85
2022-08-19T08:28:57.287Z,2.70
2022-08-19T08:33:02.690Z,3.13
2022-08-19T08:37:06.077Z,3.00
2022-08-19T08:41:20.805Z,2.65
2022-08-19T08:45:25.425Z,2.85
2022-08-19T08:49:36.032Z,2.33
2022-08-19T08:53:41.985Z,2.60
2022-08-19T08:57:55.783Z,2.80
2022-08-19T09:01:59.343Z,2.70
2022-08-19T09:06:06.297Z,2.78
2022-08-19T09:10:25.815Z,2.55
2022-08-19T09:14:51.077Z,2.90
2022-08-19T09:18:56.520Z,2.75
2022-08-19T09:23:01.131Z,2.40
2022-08-19T09:27:16.006Z,2.47
2022-08-19T09:31:30.519Z,2.80
2022-08-19T09:35:49.942Z,2.72
2022-08-19T09:39:58.979Z,2.35
2022-08-19T09:44:02.242Z,2.47
2022-08-19T09:48:07.221Z,3.00
2022-08-19T09:52:13.606Z,2.67
2022-08-19T09:56:20.110Z,2.55
2022-08-19T10:00:23.908Z,2.60
2022-08-19T10:04:47.289Z,2.33
2022-08-19T10:08:51.193Z,2.40
2022-08-19T10:12:56.998Z,2.90
2022-08-19T10:17:01.351Z,2.42
2022-08-19T10:21:25.552Z,2.53
2022-08-19T10:25:28.972Z,2.20
2022-08-19T10:29:36.894Z,2.30
2022-08-19T10:33:53.835Z,2.17
2022-08-19T10:38:02.085Z,2.22
2022-08-19T10:42:07.940Z,2.35
2022-08-19T10:46:16.472Z,2.60
2022-08-19T10:50:37.802Z,2.78
2022-08-19T10:54:58.650Z,2.55
2022-08-19T10:59:08.941Z,3.03
2022-08-19T11:03:13.653Z,2.60
2022-08-19T11:07:17.150Z,2.50
2022-08-19T11:11:20.314Z,2.67
2022-08-19T11:15:24.275Z,3.15
2022-08-19T11:19:28.962Z,3.10
2022-08-19T11:23:32.105Z,3.83
2022-08-19T11:27:35.675Z,3.20
2022-08-19T11:31:40.389Z,3.28
2022-08-19T11:35:45.308Z,3.10
2022-08-19T11:39:53.342Z,2.58
2022-08-19T11:43:57.592Z,2.45
2022-08-19T11:48:00.863Z,2.40
2022-08-19T11:52:05.705Z,2.70
2022-08-19T11:56:10.251Z,1.90
2022-08-19T12:00:14.826Z,2.35
2022-08-19T12:04:18.602Z,2.85
2022-08-19T12:08:25.096Z,2.80
2022-08-19T12:12:28.563Z,2.58
2022-08-19T12:16:33.773Z,2.78
2022-08-19T12:20:38.221Z,3.00
2022-08-19T12:24:42.986Z,2.67
2022-08-19T12:28:47.092Z,3.03
2022-08-19T12:32:52.098Z,2.72
2022-08-19T12:36:55.543Z,2.83
2022-08-19T12:41:00.522Z,2.90
2022-08-19T12:45:03.763Z,2.65
2022-08-19T12:49:19.944Z,2.80
2022-08-19T12:53:32.893Z,2.53
2022-08-19T12:57:39.994Z,2.67
2022-08-19T13:01:43.406Z,3.00
2022-08-19T13:05:46.817Z,3.00
2022-08-19T13:09:49.932Z,3.05
2022-08-19T13:13:56.301Z,2.95
2022-08-19T13:17:59.815Z,2.85
2022-08-19T13:22:02.939Z,2.20
2022-08-19T13:26:09.035Z,2.80
2022-08-19T13:30:34.827Z,2.70
2022-08-19T13:34:38.031Z,2.58
2022-08-19T13:38:41.157Z,2.28
2022-08-19T13:42:45.045Z,2.47
2022-08-19T13:46:54.290Z,2.45
2022-08-19T13:50:57.655Z,2.70
2022-08-19T13:55:00.945Z,2.03
2022-08-19T13:59:04.203Z,2.03
2022-08-19T14:03:09.486Z,2.30
2022-08-19T14:07:12.858Z,2.60
2022-08-19T14:11:17.010Z,2.10
2022-08-19T14:15:20.155Z,2.70
2022-08-19T14:19:24.845Z,2.22
2022-08-19T14:23:33.193Z,2.65
2022-08-19T14:27:36.581Z,2.45
2022-08-19T14:31:42.334Z,2.65
2022-08-19T14:35:46.927Z,2.50
2022-08-19T14:39:50.053Z,2.63
2022-08-19T14:43:54.330Z,2.80
2022-08-19T14:47:57.616Z,2.30
2022-08-19T14:52:01.998Z,2.60
2022-08-19T14:56:09.966Z,2.53
2022-08-19T15:00:14.717Z,2.38
2022-08-19T15:04:17.928Z,2.20
2022-08-19T15:08:25.813Z,2.20
2022-08-19T15:12:28.838Z,3.03
2022-08-19T15:16:32.065Z,2.10
2022-08-19T15:20:35.174Z,2.40
2022-08-19T15:24:47.861Z,2.20
2022-08-19T15:28:51.719Z,2.10
2022-08-19T15:32:55.856Z,2.08
2022-08-19T15:37:00.123Z,1.85
2022-08-19T15:41:20.133Z,1.90
2022-08-19T15:45:23.780Z,2.20
2022-08-19T15:49:27.005Z,1.48
2022-08-19T15:53:30.216Z,1.88
2022-08-19T15:57:51.802Z,1.80
2022-08-19T16:02:12.385Z,1.55
2022-08-19T16:06:28.347Z,1.35
2022-08-19T16:10:31.656Z,1.98
2022-08-19T16:14:38.150Z,1.60
2022-08-19T16:18:41.474Z,1.45
2022-08-19T16:22:44.693Z,1.70
2022-08-19T16:26:48.624Z,1.20
2022-08-19T16:30:53.028Z,1.92
2022-08-19T16:34:56.083Z,1.70
2022-08-19T16:38:59.156Z,1.88
2022-08-19T16:43:02.921Z,1.70
2022-08-19T16:47:07.828Z,1.85
2022-08-19T16:51:11.722Z,1.80
2022-08-19T16:55:15.520Z,1.60
2022-08-19T16:59:18.916Z,1.80
2022-08-19T17:03:35.684Z,1.90
2022-08-19T17:07:40.226Z,1.85
2022-08-19T17:11:43.189Z,1.55
2022-08-19T17:15:46.394Z,1.60
2022-08-19T17:19:50.787Z,1.55
2022-08-19T17:23:54.398Z,1.60
2022-08-19T17:27:57.446Z,1.67
2022-08-19T17:32:00.797Z,2.08
2022-08-19T17:36:06.837Z,1.70
2022-08-19T17:40:11.169Z,1.88
2022-08-19T17:44:14.600Z,1.63
2022-08-19T17:48:17.992Z,1.60
2022-08-19T17:52:22.565Z,1.65
2022-08-19T17:56:25.997Z,2.33
2022-08-19T18:00:29.035Z,2.28
2022-08-19T18:04:34.659Z,2.03
2022-08-19T18:08:39.981Z,2.33
2022-08-19T18:12:44.694Z,2.00
2022-08-19T18:16:48.025Z,1.88
2022-08-19T18:20:51.617Z,2.17
2022-08-19T18:24:57.882Z,2.55
2022-08-19T18:29:01.974Z,2.58
2022-08-19T18:33:15.073Z,1.80
2022-08-19T18:37:18.503Z,2.17
2022-08-19T18:41:40.634Z,2.00
2022-08-19T18:46:02.829Z,2.22
2022-08-19T18:50:09.120Z,2.35
2022-08-19T18:54:15.172Z,2.25
2022-08-19T18:58:24.379Z,2.20
2022-08-19T19:02:29.608Z,2.10
2022-08-19T19:06:40.191Z,2.50
2022-08-19T19:10:44.537Z,2.63
2022-08-19T19:14:50.668Z,2.80
2022-08-19T19:19:04.887Z,2.50
2022-08-19T19:24:24.591Z,2.53
2022-08-19T19:28:30.832Z,2.72
2022-08-19T19:32:39.269Z,3.05
2022-08-19T19:36:42.654Z,2.60
2022-08-19T19:40:45.997Z,2.50
2022-08-19T19:44:50.555Z,2.33
2022-08-19T19:48:59.842Z,1.90
2022-08-19T19:53:03.260Z,2.60
2022-08-19T19:57:06.718Z,2.75
2022-08-19T20:01:12.838Z,3.25
2022-08-19T20:05:34.088Z,2.20
2022-08-19T20:09:58.368Z,2.42
2022-08-19T20:14:03.514Z,1.90
2022-08-19T20:18:07.704Z,2.00
2022-08-19T20:22:14.171Z,1.88
2022-08-19T20:26:27.173Z,2.05
2022-08-19T20:30:36.123Z,2.22
2022-08-19T20:34:44.769Z,1.58
2022-08-19T20:38:49.907Z,1.77
2022-08-19T20:42:56.295Z,1.75
2022-08-19T20:47:03.379Z,1.80
2022-08-19T20:51:07.712Z,1.95
2022-08-19T20:55:13.959Z,2.25
2022-08-19T20:59:17.768Z,1.83
2022-08-19T21:03:24.169Z,1.77
2022-08-19T21:07:39.297Z,1.92
2022-08-19T21:11:44.241Z,2.00
2022-08-19T21:15:47.940Z,2.08
2022-08-19T21:19:51.095Z,2.10
2022-08-19T21:23:54.468Z,1.80
2022-08-19T21:27:59.203Z,2.03
2022-08-19T21:32:02.400Z,2.17
2022-08-19T21:36:06.460Z,1.80
2022-08-19T21:40:11.091Z,2.05
2022-08-19T21:44:15.725Z,2.10
2022-08-19T21:48:19.459Z,2.15
2022-08-19T21:52:23.406Z,2.30
2022-08-19T21:56:26.546Z,2.30
2022-08-19T22:00:32.332Z,2.03
2022-08-19T22:04:35.654Z,1.55
2022-08-19T22:08:38.875Z,1.38
2022-08-19T22:12:47.385Z,1.38
2022-08-19T22:16:56.420Z,0.93
2022-08-19T22:20:59.552Z,0.73
2022-08-19T22:25:07.771Z,0.77
2022-08-19T22:29:11.526Z,0.93
2022-08-19T22:33:22.378Z,1.00
2022-08-19T22:37:26.011Z,0.80
2022-08-19T22:41:29.142Z,0.90
2022-08-19T22:45:36.351Z,1.00
2022-08-19T22:49:40.769Z,0.80
2022-08-19T22:53:46.060Z,0.82
2022-08-19T22:57:49.323Z,1.00
2022-08-19T23:01:52.473Z,1.00
2022-08-19T23:05:57.243Z,1.00
2022-08-19T23:10:00.540Z,1.27
2022-08-19T23:14:05.029Z,1.33
2022-08-19T23:18:08.814Z,1.00
2022-08-19T23:22:17.124Z,1.20
2022-08-19T23:26:20.559Z,1.02
2022-08-19T23:30:28.381Z,1.20
2022-08-19T23:34:31.604Z,1.08
2022-08-19T23:38:36.796Z,1.15
2022-08-19T23:42:41.963Z,1.65
2022-08-19T23:46:55.267Z,1.50
2022-08-19T23:50:59.014Z,1.50
2022-08-19T23:55:06.257Z,1.80
2022-08-19T23:59:09.444Z,2.03
